Time;durP1;ratioP1;P1;durP2;ratioP2;P2;SDS_P1;SDS_P2;PMS_P1;PMS_P2;Temp;Humidity;BMP_temperature;BMP_pressure;BME280_temperature;BME280_humidity;BME280_pressure;Samples;Min_cycle;Max_cycle;Signal;HPM_P1;HPM_P2
2022/01/22 00:01:48;;;;;;;;;;;6.40;99.90;;;;;;5091853;28;19923;-52
2022/01/22 00:04:14;;;;;;;;;;;6.40;99.90;;;;;;5074365;28;19963;-50
2022/01/22 00:06:39;;;;;;;;;;;6.40;99.90;;;;;;5077983;28;19927;-50
2022/01/22 00:09:05;;;;;;;;;;;6.30;99.90;;;;;;5073606;28;20383;-51
2022/01/22 00:11:37;;;;;;;;;;;6.40;99.90;;;;;;5088566;28;19924;-52
2022/01/22 00:16:47;;;;;;;;;;;6.40;99.90;;;;;;5093025;28;19923;-48
2022/01/22 00:19:13;;;;;;;;;;;6.40;99.90;;;;;;5084839;28;20015;-48
2022/01/22 00:21:39;;;;;;;;;;;6.40;99.90;;;;;;5089716;28;19928;-49
2022/01/22 00:24:07;;;;;;;;;;;6.40;99.90;;;;;;5085750;28;19947;-48
2022/01/22 00:26:33;;;;;;;;;;;6.30;99.90;;;;;;5089456;28;19923;-52
2022/01/22 00:28:59;;;;;;;;;;;6.40;99.90;;;;;;5074770;28;19916;-53
2022/01/22 00:31:25;;;;;;;;;;;6.30;99.90;;;;;;5072002;28;20245;-54
2022/01/22 00:33:51;;;;;;;;;;;6.30;99.90;;;;;;5073643;28;20506;-48
2022/01/22 00:36:16;;;;;;;;;;;6.40;99.90;;;;;;5070716;28;21192;-50
2022/01/22 00:38:42;;;;;;;;;;;6.40;99.90;;;;;;5068546;28;19945;-50
2022/01/22 00:41:08;;;;;;;;;;;6.40;99.90;;;;;;5091769;28;19920;-48
2022/01/22 00:43:34;;;;;;;;;;;6.40;99.90;;;;;;5072198;28;20396;-47
2022/01/22 00:45:59;;;;;;;;;;;6.30;99.90;;;;;;5089599;28;19923;-51
2022/01/22 00:48:25;;;;;;;;;;;6.30;99.90;;;;;;5075459;28;20406;-50
2022/01/22 00:50:55;;;;;;;;;;;6.40;99.90;;;;;;5090610;28;19920;-49
2022/01/22 00:53:20;;;;;;;;;;;6.30;99.90;;;;;;5087272;28;19922;-53
2022/01/22 00:55:46;;;;;;;;;;;6.40;99.90;;;;;;5071153;28;19916;-49
2022/01/22 00:58:12;;;;;;;;;;;6.30;99.90;;;;;;5074141;28;19916;-50
2022/01/22 01:00:38;;;;;;;;;;;6.30;99.90;;;;;;5074774;28;19915;-48
2022/01/22 01:03:03;;;;;;;;;;;6.30;99.90;;;;;;5091253;28;20427;-50
2022/01/22 01:05:29;;;;;;;;;;;6.30;99.90;;;;;;5072775;28;19994;-50
2022/01/22 01:07:55;;;;;;;;;;;6.30;99.90;;;;;;5043833;28;20014;-51
2022/01/22 01:10:21;;;;;;;;;;;6.40;99.90;;;;;;5084600;28;19973;-49
2022/01/22 01:12:48;;;;;;;;;;;6.40;99.90;;;;;;5051585;28;19916;-50
2022/01/22 01:33:59;;;;;;;;;;;6.40;99.90;;;;;;5070928;28;19916;-51
2022/01/22 01:36:25;;;;;;;;;;;6.30;99.90;;;;;;5068790;28;20274;-51
2022/01/22 01:38:55;;;;;;;;;;;6.30;99.90;;;;;;5095671;28;19927;-50
2022/01/22 01:41:59;;;;;;;;;;;6.30;99.90;;;;;;5089352;28;19924;-52
2022/01/22 01:44:13;;;;;;;;;;;6.30;99.90;;;;;;5047959;28;19986;-50
2022/01/22 01:46:43;;;;;;;;;;;6.30;99.90;;;;;;5051500;28;20355;-52
2022/01/22 01:49:10;;;;;;;;;;;6.40;99.90;;;;;;5065913;28;19995;-49
2022/01/22 01:51:36;;;;;;;;;;;6.30;99.90;;;;;;5067512;28;19927;-53
2022/01/22 01:59:16;;;;;;;;;;;6.30;99.90;;;;;;5077304;28;20414;-53
2022/01/22 02:01:42;;;;;;;;;;;6.20;99.90;;;;;;5066402;28;19927;-52
2022/01/22 02:04:10;;;;;;;;;;;6.20;99.90;;;;;;5080659;28;19924;-55
2022/01/22 02:06:36;;;;;;;;;;;6.20;99.90;;;;;;5081045;28;20003;-50
2022/01/22 02:09:06;;;;;;;;;;;6.10;99.90;;;;;;5050170;28;19952;-50
2022/01/22 02:11:33;;;;;;;;;;;6.20;99.90;;;;;;5053721;28;20378;-53
2022/01/22 02:24:43;;;;;;;;;;;6.20;99.90;;;;;;5070777;28;20014;-51
2022/01/22 02:27:08;;;;;;;;;;;6.20;99.90;;;;;;5069468;28;19999;-55
2022/01/22 02:29:34;;;;;;;;;;;6.20;99.90;;;;;;5081135;28;20480;-52
2022/01/22 02:34:54;;;;;;;;;;;6.20;99.90;;;;;;5054497;28;19916;-53
2022/01/22 02:37:22;;;;;;;;;;;6.20;99.90;;;;;;5046301;28;19921;-49
2022/01/22 02:40:02;;;;;;;;;;;6.20;99.90;;;;;;5040786;28;19924;-50
2022/01/22 02:42:31;;;;;;;;;;;6.20;99.90;;;;;;5043687;28;19933;-51
2022/01/22 02:44:57;;;;;;;;;;;6.20;99.90;;;;;;5066985;28;19923;-52
2022/01/22 02:47:23;;;;;;;;;;;6.20;99.90;;;;;;5072004;28;20410;-51
2022/01/22 02:49:49;;;;;;;;;;;6.20;99.90;;;;;;5068839;28;19923;-54
2022/01/22 02:52:17;;;;;;;;;;;6.20;99.90;;;;;;5047615;28;19921;-51
2022/01/22 02:54:43;;;;;;;;;;;6.10;99.90;;;;;;5069481;28;19924;-55
2022/01/22 02:57:10;;;;;;;;;;;6.10;99.90;;;;;;5070451;28;19924;-50
2022/01/22 02:59:36;;;;;;;;;;;6.10;99.90;;;;;;5064389;28;19924;-51
2022/01/22 03:02:03;;;;;;;;;;;6.10;99.90;;;;;;5069904;28;19916;-52
2022/01/22 03:04:29;;;;;;;;;;;6.10;99.90;;;;;;5052448;28;19923;-50
2022/01/22 03:06:55;;;;;;;;;;;6.10;99.90;;;;;;5050855;28;19920;-53
2022/01/22 03:09:27;;;;;;;;;;;6.10;99.90;;;;;;5031023;28;20371;-52
2022/01/22 03:15:12;;;;;;;;;;;6.10;99.90;;;;;;5067228;28;19991;-53
2022/01/22 03:27:57;;;;;;;;;;;6.10;99.90;;;;;;5065173;28;19916;-51
2022/01/22 03:30:22;;;;;;;;;;;6.10;99.90;;;;;;5067089;28;19942;-52
2022/01/22 03:32:52;;;;;;;;;;;6.10;99.90;;;;;;5050166;28;19916;-50
2022/01/22 03:37:44;;;;;;;;;;;6.10;99.90;;;;;;5071570;28;19920;-55
2022/01/22 03:40:12;;;;;;;;;;;6.10;99.90;;;;;;5052259;28;19924;-50
2022/01/22 03:42:38;;;;;;;;;;;6.10;99.90;;;;;;5053080;28;19934;-52
2022/01/22 03:45:05;;;;;;;;;;;6.10;99.90;;;;;;5069285;28;19966;-53
2022/01/22 03:47:31;;;;;;;;;;;6.10;99.90;;;;;;5095068;28;19968;-51
2022/01/22 03:49:57;;;;;;;;;;;6.10;99.90;;;;;;5082430;28;19963;-56
2022/01/22 03:52:23;;;;;;;;;;;6.10;99.90;;;;;;5062650;28;19925;-56
2022/01/22 03:54:49;;;;;;;;;;;6.40;99.90;;;;;;5067431;28;19916;-54
2022/01/22 03:57:15;;;;;;;;;;;6.10;99.90;;;;;;5067504;28;20342;-51
2022/01/22 03:59:40;;;;;;;;;;;6.10;99.90;;;;;;5062679;28;19987;-54
2022/01/22 04:03:24;;;;;;;;;;;6.10;99.90;;;;;;5094900;28;20003;-52
2022/01/22 04:05:00;;;;;;;;;;;6.10;99.90;;;;;;5065985;28;19930;-52
2022/01/22 04:10:03;;;;;;;;;;;6.00;99.90;;;;;;5066819;28;19912;-52
2022/01/22 04:12:40;;;;;;;;;;;6.00;99.90;;;;;;5097200;28;19916;-51
2022/01/22 04:15:08;;;;;;;;;;;6.00;99.90;;;;;;5066098;28;19924;-52
2022/01/22 04:25:32;;;;;;;;;;;6.00;99.90;;;;;;5099542;27;19916;-51
2022/01/22 04:27:58;;;;;;;;;;;6.00;99.90;;;;;;5088051;28;19931;-54
2022/01/22 04:30:25;;;;;;;;;;;6.00;99.90;;;;;;5072924;28;19929;-54
2022/01/22 04:32:51;;;;;;;;;;;6.00;99.90;;;;;;5072830;28;19967;-50
2022/01/22 04:35:18;;;;;;;;;;;6.00;99.90;;;;;;5067573;28;20425;-50
2022/01/22 04:37:45;;;;;;;;;;;5.90;99.90;;;;;;5081414;28;19916;-51
2022/01/22 04:40:11;;;;;;;;;;;5.90;99.90;;;;;;5074652;28;19946;-53
2022/01/22 04:42:39;;;;;;;;;;;5.90;99.90;;;;;;5065944;28;20431;-51
2022/01/22 04:45:49;;;;;;;;;;;5.90;99.90;;;;;;5068274;28;19916;-54
2022/01/22 04:55:36;;;;;;;;;;;6.00;99.90;;;;;;5071279;28;20285;-50
2022/01/22 04:58:03;;;;;;;;;;;6.00;99.90;;;;;;5070150;28;19916;-50
2022/01/22 05:00:31;;;;;;;;;;;6.00;99.90;;;;;;5085210;28;20003;-52
2022/01/22 05:02:57;;;;;;;;;;;6.00;99.90;;;;;;5103385;27;19942;-49
2022/01/22 05:05:23;;;;;;;;;;;6.00;99.90;;;;;;5083196;28;19920;-50
2022/01/22 05:07:49;;;;;;;;;;;6.10;99.90;;;;;;5074633;28;19927;-51
2022/01/22 05:10:15;;;;;;;;;;;6.00;99.90;;;;;;5070495;28;19943;-51
2022/01/22 05:12:40;;;;;;;;;;;6.10;99.90;;;;;;5070905;28;19920;-50
2022/01/22 05:15:06;;;;;;;;;;;6.00;99.90;;;;;;5103741;27;19917;-54
2022/01/22 05:17:36;;;;;;;;;;;6.00;99.90;;;;;;5073135;28;19942;-50
2022/01/22 05:20:08;;;;;;;;;;;6.00;99.90;;;;;;5068439;28;19923;-54
2022/01/22 05:22:53;;;;;;;;;;;6.00;99.90;;;;;;5069132;28;20266;-52
2022/01/22 05:25:31;;;;;;;;;;;6.00;99.90;;;;;;5097285;28;19920;-52
2022/01/22 05:30:53;;;;;;;;;;;6.00;99.90;;;;;;5100666;27;19924;-50
2022/01/22 05:36:57;;;;;;;;;;;6.00;99.90;;;;;;5068488;28;19923;-55
2022/01/22 05:39:09;;;;;;;;;;;6.00;99.90;;;;;;5067269;28;20523;-54
2022/01/22 05:41:37;;;;;;;;;;;6.00;99.90;;;;;;5070114;28;19920;-55
2022/01/22 05:44:02;;;;;;;;;;;6.00;99.90;;;;;;5089391;28;19920;-53
2022/01/22 05:46:28;;;;;;;;;;;6.00;99.90;;;;;;5074394;28;19942;-54
2022/01/22 05:48:54;;;;;;;;;;;6.10;99.90;;;;;;5055870;28;19916;-53
2022/01/22 05:51:19;;;;;;;;;;;6.00;99.90;;;;;;5087167;28;19920;-52
2022/01/22 05:54:11;;;;;;;;;;;6.10;99.90;;;;;;5090022;28;19919;-53
2022/01/22 06:01:59;;;;;;;;;;;6.00;99.90;;;;;;5090584;28;19916;-54
2022/01/22 06:04:25;;;;;;;;;;;6.00;99.90;;;;;;5089082;28;19924;-53
2022/01/22 06:06:50;;;;;;;;;;;6.00;99.90;;;;;;5091557;28;19915;-54
2022/01/22 06:09:16;;;;;;;;;;;5.30;99.90;;;;;;5064765;28;20006;-53
2022/01/22 06:11:56;;;;;;;;;;;6.00;99.90;;;;;;5052963;28;19949;-53
2022/01/22 06:14:21;;;;;;;;;;;6.10;99.90;;;;;;5087559;28;19924;-53
2022/01/22 06:16:47;;;;;;;;;;;6.10;99.90;;;;;;5068459;28;20368;-52
2022/01/22 06:19:13;;;;;;;;;;;6.10;99.90;;;;;;5090875;28;19927;-54
2022/01/22 06:21:39;;;;;;;;;;;6.10;99.90;;;;;;5071992;28;19916;-54
2022/01/22 06:24:05;;;;;;;;;;;6.10;99.90;;;;;;5104329;27;20266;-55
2022/01/22 06:26:31;;;;;;;;;;;6.10;99.90;;;;;;5088833;28;19924;-51
2022/01/22 06:28:58;;;;;;;;;;;6.10;99.90;;;;;;5087640;28;19923;-53
2022/01/22 06:31:24;;;;;;;;;;;6.00;99.90;;;;;;5067752;28;19935;-54
2022/01/22 06:33:50;;;;;;;;;;;6.10;99.90;;;;;;5087977;28;19920;-51
2022/01/22 06:36:16;;;;;;;;;;;6.10;99.90;;;;;;5091318;28;19916;-51
2022/01/22 06:38:41;;;;;;;;;;;6.00;99.90;;;;;;5071103;28;20268;-53
2022/01/22 06:43:52;;;;;;;;;;;6.10;99.90;;;;;;5067026;28;20325;-51
2022/01/22 06:46:17;;;;;;;;;;;6.00;99.90;;;;;;5049413;28;19961;-56
2022/01/22 06:48:43;;;;;;;;;;;6.00;99.90;;;;;;5066892;28;20370;-55
2022/01/22 06:51:09;;;;;;;;;;;6.00;99.90;;;;;;5066962;28;19998;-53
2022/01/22 06:53:40;;;;;;;;;;;6.00;99.90;;;;;;5065655;28;19916;-52
2022/01/22 06:56:07;;;;;;;;;;;6.00;99.90;;;;;;5056487;28;19920;-53
2022/01/22 06:58:33;;;;;;;;;;;6.00;99.90;;;;;;5065922;28;19920;-54
2022/01/22 07:00:58;;;;;;;;;;;5.90;99.90;;;;;;5048878;28;19924;-50
2022/01/22 07:03:24;;;;;;;;;;;6.00;99.90;;;;;;5043055;28;19923;-53
2022/01/22 07:05:50;;;;;;;;;;;5.90;99.90;;;;;;5083368;28;19923;-51
2022/01/22 07:08:15;;;;;;;;;;;5.90;99.90;;;;;;5063848;28;20023;-54
2022/01/22 07:10:41;;;;;;;;;;;5.80;99.90;;;;;;5049295;28;19940;-52
2022/01/22 07:13:07;;;;;;;;;;;5.80;99.90;;;;;;5062480;28;20138;-52
2022/01/22 07:15:33;;;;;;;;;;;5.80;99.90;;;;;;5050348;28;20388;-51
2022/01/22 07:17:59;;;;;;;;;;;5.80;99.90;;;;;;5047301;28;19917;-53
2022/01/22 07:20:30;;;;;;;;;;;5.80;99.90;;;;;;5061190;28;19923;-54
2022/01/22 07:23:13;;;;;;;;;;;5.80;99.90;;;;;;5048609;28;19924;-52
2022/01/22 07:25:40;;;;;;;;;;;5.80;99.90;;;;;;5048111;28;20415;-54
2022/01/22 07:28:06;;;;;;;;;;;5.80;99.90;;;;;;5064501;28;19924;-54
2022/01/22 07:30:32;;;;;;;;;;;5.80;99.90;;;;;;5030460;28;20489;-52
2022/01/22 07:32:58;;;;;;;;;;;5.80;99.90;;;;;;5066862;28;19923;-51
2022/01/22 07:35:23;;;;;;;;;;;5.80;99.90;;;;;;5048877;28;19927;-51
2022/01/22 07:37:50;;;;;;;;;;;5.80;99.90;;;;;;5050442;28;19921;-51
2022/01/22 07:40:16;;;;;;;;;;;5.80;99.90;;;;;;5066445;28;20274;-53
2022/01/22 07:42:42;;;;;;;;;;;5.80;99.90;;;;;;5075595;28;19919;-50
2022/01/22 07:45:08;;;;;;;;;;;5.80;99.90;;;;;;5087034;28;20361;-52
2022/01/22 07:47:34;;;;;;;;;;;5.80;99.90;;;;;;5072035;28;19916;-49
2022/01/22 07:50:00;;;;;;;;;;;5.80;99.90;;;;;;5083193;28;19922;-50
2022/01/22 07:52:26;;;;;;;;;;;5.80;99.90;;;;;;5052920;28;20007;-50
2022/01/22 07:54:52;;;;;;;;;;;5.80;99.90;;;;;;5074109;28;19945;-53
2022/01/22 07:57:18;;;;;;;;;;;5.80;99.90;;;;;;5090153;28;19923;-49
2022/01/22 07:59:43;;;;;;;;;;;5.80;99.90;;;;;;5090999;28;19923;-52
2022/01/22 08:02:09;;;;;;;;;;;5.80;99.90;;;;;;5057213;28;19927;-54
2022/01/22 08:04:35;;;;;;;;;;;5.80;99.90;;;;;;5088604;28;19981;-51
2022/01/22 08:07:01;;;;;;;;;;;5.80;99.90;;;;;;5074508;28;19916;-51
2022/01/22 08:09:27;;;;;;;;;;;5.70;99.90;;;;;;5090237;28;20250;-53
2022/01/22 08:11:53;;;;;;;;;;;5.80;99.90;;;;;;5070702;28;19924;-54
2022/01/22 08:14:19;;;;;;;;;;;5.80;99.90;;;;;;5071144;28;19934;-53
2022/01/22 08:16:46;;;;;;;;;;;5.80;99.90;;;;;;5090612;28;19915;-55
2022/01/22 08:19:13;;;;;;;;;;;5.80;99.90;;;;;;5056723;28;19951;-51
2022/01/22 08:21:39;;;;;;;;;;;5.80;99.90;;;;;;5072311;28;19920;-49
2022/01/22 08:24:05;;;;;;;;;;;5.80;99.90;;;;;;5089348;28;19973;-55
2022/01/22 08:26:35;;;;;;;;;;;5.90;99.90;;;;;;5086595;28;20495;-55
2022/01/22 08:29:03;;;;;;;;;;;5.80;99.90;;;;;;5071244;28;19955;-53
2022/01/22 08:36:43;;;;;;;;;;;5.80;99.90;;;;;;5087729;28;19920;-50
2022/01/22 08:39:10;;;;;;;;;;;5.90;99.90;;;;;;5075114;28;19972;-51
2022/01/22 08:41:35;;;;;;;;;;;5.90;99.90;;;;;;5071388;28;19915;-52
2022/01/22 08:44:01;;;;;;;;;;;5.90;99.90;;;;;;5053029;28;20355;-50
2022/01/22 08:46:27;;;;;;;;;;;6.00;99.90;;;;;;5069920;28;19964;-54
2022/01/22 08:48:54;;;;;;;;;;;6.00;99.90;;;;;;5070972;28;19924;-51
2022/01/22 08:51:19;;;;;;;;;;;6.00;99.90;;;;;;5068761;28;19985;-51
2022/01/22 08:53:46;;;;;;;;;;;6.00;99.90;;;;;;5035892;28;20358;-53
2022/01/22 08:56:12;;;;;;;;;;;6.00;99.90;;;;;;5052872;28;19928;-51
2022/01/22 08:58:38;;;;;;;;;;;6.00;99.90;;;;;;5054238;28;19924;-55
2022/01/22 09:01:04;;;;;;;;;;;6.00;99.90;;;;;;5073221;28;19920;-50
2022/01/22 09:03:30;;;;;;;;;;;6.00;99.90;;;;;;5057692;28;19935;-51
2022/01/22 09:05:56;;;;;;;;;;;6.00;99.90;;;;;;5050914;28;19924;-50
2022/01/22 09:08:26;;;;;;;;;;;6.00;99.90;;;;;;5048938;28;19955;-50
2022/01/22 09:10:53;;;;;;;;;;;6.10;99.90;;;;;;5052944;28;19931;-50
2022/01/22 09:13:21;;;;;;;;;;;6.10;99.90;;;;;;5068086;28;20271;-55
2022/01/22 09:15:47;;;;;;;;;;;6.10;99.90;;;;;;5051080;28;19916;-51
2022/01/22 09:18:13;;;;;;;;;;;6.10;99.90;;;;;;5036544;28;20011;-53
2022/01/22 09:23:06;;;;;;;;;;;6.10;99.90;;;;;;5046518;28;19916;-50
2022/01/22 09:25:31;;;;;;;;;;;6.10;99.90;;;;;;5036795;28;20452;-51
2022/01/22 09:27:57;;;;;;;;;;;6.20;99.90;;;;;;5049641;28;19920;-51
2022/01/22 09:30:23;;;;;;;;;;;6.10;99.90;;;;;;5051406;28;19974;-49
2022/01/22 09:32:49;;;;;;;;;;;6.20;99.90;;;;;;5036202;28;20251;-52
2022/01/22 09:35:15;;;;;;;;;;;6.20;99.90;;;;;;5049271;28;19920;-53
2022/01/22 09:37:41;;;;;;;;;;;6.20;99.90;;;;;;5063156;28;19987;-54
2022/01/22 09:40:07;;;;;;;;;;;6.20;99.90;;;;;;5049736;28;19920;-52
2022/01/22 09:42:33;;;;;;;;;;;6.20;99.90;;;;;;5034789;28;20377;-50
2022/01/22 09:44:58;;;;;;;;;;;6.20;99.90;;;;;;5031779;28;19921;-52
2022/01/22 09:47:24;;;;;;;;;;;6.20;99.90;;;;;;5049160;28;19924;-50
2022/01/22 09:49:50;;;;;;;;;;;6.20;99.90;;;;;;5050837;28;19917;-52
2022/01/22 09:52:17;;;;;;;;;;;6.30;99.90;;;;;;5051921;28;19928;-51
2022/01/22 09:54:42;;;;;;;;;;;6.30;99.90;;;;;;5068668;28;20346;-53
2022/01/22 09:57:09;;;;;;;;;;;6.30;99.90;;;;;;5036064;28;19924;-51
2022/01/22 09:59:36;;;;;;;;;;;6.30;99.90;;;;;;5059123;28;19939;-54
2022/01/22 10:02:09;;;;;;;;;;;6.30;99.90;;;;;;5050993;28;19938;-52
2022/01/22 10:04:36;;;;;;;;;;;6.40;99.90;;;;;;5064858;28;19963;-54
2022/01/22 10:07:02;;;;;;;;;;;6.40;99.90;;;;;;5047840;28;20388;-53
2022/01/22 10:09:34;;;;;;;;;;;6.30;99.90;;;;;;5034685;28;20022;-54
2022/01/22 10:12:08;;;;;;;;;;;6.40;99.90;;;;;;5046802;28;20397;-52
2022/01/22 10:14:33;;;;;;;;;;;6.40;99.90;;;;;;5048811;28;19920;-51
2022/01/22 10:16:59;;;;;;;;;;;6.50;99.90;;;;;;5065490;28;19932;-53
2022/01/22 10:19:25;;;;;;;;;;;6.50;99.90;;;;;;5067861;28;19977;-51
2022/01/22 10:21:56;;;;;;;;;;;6.50;99.90;;;;;;5049562;28;19963;-52
2022/01/22 10:24:38;;;;;;;;;;;6.50;99.90;;;;;;5066543;28;19923;-52
2022/01/22 10:27:26;;;;;;;;;;;6.50;99.90;;;;;;5069304;28;20012;-52
2022/01/22 10:30:05;;;;;;;;;;;6.50;99.90;;;;;;5065740;28;19969;-52
2022/01/22 10:35:15;;;;;;;;;;;6.50;99.90;;;;;;5050448;28;21030;-52
2022/01/22 10:37:41;;;;;;;;;;;6.50;99.90;;;;;;5046421;28;20273;-53
2022/01/22 10:40:17;;;;;;;;;;;6.50;99.90;;;;;;5067127;28;20019;-54
2022/01/22 10:42:43;;;;;;;;;;;6.50;99.90;;;;;;5063385;28;19921;-54
2022/01/22 10:45:19;;;;;;;;;;;6.50;99.90;;;;;;5085135;28;19923;-53
2022/01/22 10:47:45;;;;;;;;;;;6.50;99.90;;;;;;5046717;28;20389;-51
2022/01/22 10:50:18;;;;;;;;;;;6.50;99.90;;;;;;5080121;28;19916;-54
2022/01/22 10:52:48;;;;;;;;;;;6.50;99.90;;;;;;5045808;28;19924;-51
2022/01/22 10:55:14;;;;;;;;;;;6.60;99.90;;;;;;5051071;28;20258;-50
2022/01/22 10:57:39;;;;;;;;;;;6.60;99.90;;;;;;5080741;28;20023;-51
2022/01/22 11:00:18;;;;;;;;;;;6.50;99.90;;;;;;5048607;28;19924;-51
2022/01/22 11:02:44;;;;;;;;;;;6.60;99.90;;;;;;5048927;28;19978;-55
2022/01/22 11:05:12;;;;;;;;;;;6.50;99.90;;;;;;5069047;28;20443;-53
2022/01/22 11:07:37;;;;;;;;;;;6.60;99.90;;;;;;5049844;28;19962;-54
2022/01/22 11:10:03;;;;;;;;;;;6.60;99.90;;;;;;5065742;28;20020;-52
2022/01/22 11:12:29;;;;;;;;;;;6.60;99.90;;;;;;5062961;28;19920;-54
2022/01/22 11:14:56;;;;;;;;;;;6.60;99.90;;;;;;5031922;28;19916;-54
2022/01/22 11:17:24;;;;;;;;;;;6.60;99.90;;;;;;5082802;28;19928;-51
2022/01/22 11:19:51;;;;;;;;;;;6.60;99.90;;;;;;5048462;28;19916;-55
2022/01/22 11:22:17;;;;;;;;;;;6.60;99.90;;;;;;5049391;28;19935;-52
2022/01/22 11:24:44;;;;;;;;;;;6.50;99.90;;;;;;5065209;28;19971;-51
2022/01/22 11:27:15;;;;;;;;;;;6.60;99.90;;;;;;5049888;28;19927;-54
2022/01/22 11:29:45;;;;;;;;;;;6.60;99.90;;;;;;5065251;28;19921;-50
2022/01/22 11:32:12;;;;;;;;;;;6.60;99.90;;;;;;5081129;28;19921;-51
2022/01/22 11:34:39;;;;;;;;;;;6.60;99.90;;;;;;5064973;28;19942;-52
2022/01/22 11:37:04;;;;;;;;;;;6.60;99.90;;;;;;5051322;28;20187;-50
2022/01/22 11:39:31;;;;;;;;;;;6.60;99.90;;;;;;5048090;28;19947;-51
2022/01/22 11:42:15;;;;;;;;;;;6.60;99.90;;;;;;5062730;28;19920;-54
2022/01/22 11:45:01;;;;;;;;;;;6.60;99.90;;;;;;5068783;28;19927;-50
2022/01/22 11:47:27;;;;;;;;;;;6.60;99.90;;;;;;5050695;28;19920;-51
2022/01/22 11:50:07;;;;;;;;;;;6.60;99.90;;;;;;5051487;28;19926;-54
2022/01/22 11:52:38;;;;;;;;;;;6.60;99.90;;;;;;5062771;28;19928;-52
2022/01/22 11:55:14;;;;;;;;;;;6.60;99.90;;;;;;5053506;28;19917;-51
2022/01/22 11:57:40;;;;;;;;;;;6.60;99.90;;;;;;5066589;28;19920;-52
2022/01/22 12:00:18;;;;;;;;;;;6.70;99.90;;;;;;5068332;28;19974;-53
2022/01/22 12:02:44;;;;;;;;;;;6.60;99.90;;;;;;5044616;28;19967;-51
2022/01/22 12:05:10;;;;;;;;;;;6.70;99.90;;;;;;5067186;28;19963;-52
2022/01/22 12:07:36;;;;;;;;;;;6.70;99.90;;;;;;5064213;28;19928;-50
2022/01/22 12:10:15;;;;;;;;;;;6.70;99.90;;;;;;5065660;28;19920;-52
2022/01/22 12:15:34;;;;;;;;;;;6.10;99.90;;;;;;5067046;28;20445;-50
2022/01/22 12:18:02;;;;;;;;;;;6.70;99.90;;;;;;5065029;28;19971;-51
2022/01/22 12:23:02;;;;;;;;;;;6.70;99.90;;;;;;5045335;28;19925;-52
2022/01/22 12:25:28;;;;;;;;;;;6.70;99.90;;;;;;5069806;28;19916;-54
2022/01/22 12:27:54;;;;;;;;;;;6.70;99.90;;;;;;5066961;28;20439;-52
2022/01/22 12:30:36;;;;;;;;;;;6.80;99.90;;;;;;5067750;28;19974;-51
2022/01/22 12:33:03;;;;;;;;;;;6.70;99.90;;;;;;5051275;28;20005;-54
2022/01/22 12:35:32;;;;;;;;;;;6.80;99.90;;;;;;5051421;28;20048;-52
2022/01/22 12:38:17;;;;;;;;;;;6.70;99.90;;;;;;5060148;28;19931;-50
2022/01/22 12:40:44;;;;;;;;;;;6.70;99.90;;;;;;5039937;28;19920;-55
2022/01/22 12:43:13;;;;;;;;;;;6.70;99.90;;;;;;5059923;28;19925;-53
2022/01/22 12:45:41;;;;;;;;;;;6.70;99.90;;;;;;5071370;28;19925;-51
2022/01/22 12:48:10;;;;;;;;;;;6.70;99.90;;;;;;5067950;28;19974;-55
2022/01/22 12:50:36;;;;;;;;;;;6.70;99.90;;;;;;5070489;28;20019;-55
2022/01/22 12:53:08;;;;;;;;;;;6.70;99.90;;;;;;5070653;28;20121;-53
2022/01/22 12:58:26;;;;;;;;;;;6.70;99.90;;;;;;5055143;28;19920;-54
2022/01/22 13:01:07;;;;;;;;;;;6.70;99.90;;;;;;5069272;28;19925;-52
2022/01/22 13:03:34;;;;;;;;;;;6.60;99.90;;;;;;5071202;28;19916;-53
2022/01/22 13:06:00;;;;;;;;;;;6.60;99.90;;;;;;5069079;28;19912;-51
2022/01/22 13:08:30;;;;;;;;;;;6.60;99.90;;;;;;5051507;28;19920;-55
2022/01/22 13:10:59;;;;;;;;;;;6.60;99.90;;;;;;5050009;28;20036;-54
2022/01/22 13:13:25;;;;;;;;;;;6.70;99.90;;;;;;5067893;28;19924;-51
2022/01/22 13:16:00;;;;;;;;;;;6.60;99.90;;;;;;5068450;28;19991;-52
2022/01/22 13:18:37;;;;;;;;;;;6.60;99.90;;;;;;5035356;28;19928;-54
2022/01/22 13:21:09;;;;;;;;;;;6.60;99.90;;;;;;5048031;28;20340;-51
2022/01/22 13:23:35;;;;;;;;;;;6.70;99.90;;;;;;5067588;28;19978;-51
2022/01/22 13:26:01;;;;;;;;;;;6.70;99.90;;;;;;5066132;28;20003;-50
2022/01/22 13:28:27;;;;;;;;;;;6.60;99.90;;;;;;5066341;28;19924;-54
2022/01/22 13:30:59;;;;;;;;;;;6.60;99.90;;;;;;5081761;28;20381;-54
2022/01/22 13:33:42;;;;;;;;;;;6.70;99.90;;;;;;5067765;28;19924;-55
2022/01/22 13:49:25;;;;;;;;;;;6.60;99.90;;;;;;5067511;28;20007;-52
2022/01/22 13:51:51;;;;;;;;;;;6.60;99.90;;;;;;5042006;28;19921;-49
2022/01/22 13:54:17;;;;;;;;;;;6.60;99.90;;;;;;5035707;28;20061;-50
2022/01/22 13:56:50;;;;;;;;;;;6.60;99.90;;;;;;5042040;28;19920;-55
2022/01/22 13:59:19;;;;;;;;;;;6.60;99.90;;;;;;5064309;28;19993;-50
2022/01/22 14:04:39;;;;;;;;;;;6.50;99.90;;;;;;5067735;28;19934;-53
2022/01/22 14:07:15;;;;;;;;;;;6.50;99.90;;;;;;5034147;28;19956;-51
2022/01/22 14:09:50;;;;;;;;;;;6.60;99.90;;;;;;5046023;28;20015;-53
2022/01/22 14:12:16;;;;;;;;;;;6.50;99.90;;;;;;5064981;28;19928;-53
2022/01/22 14:15:00;;;;;;;;;;;6.50;99.90;;;;;;5045407;28;20290;-50
2022/01/22 14:17:32;;;;;;;;;;;6.50;99.90;;;;;;5050560;28;19920;-50
2022/01/22 14:19:59;;;;;;;;;;;6.50;99.90;;;;;;5065819;28;20331;-50
2022/01/22 14:22:24;;;;;;;;;;;6.40;99.90;;;;;;5065073;28;19999;-49
2022/01/22 14:24:50;;;;;;;;;;;6.40;99.90;;;;;;5047333;28;20019;-50
2022/01/22 14:27:20;;;;;;;;;;;6.40;99.90;;;;;;5064359;28;20003;-49
2022/01/22 14:29:45;;;;;;;;;;;6.40;99.90;;;;;;5049491;28;20263;-50
2022/01/22 14:32:17;;;;;;;;;;;6.40;99.90;;;;;;5065761;28;19931;-50
2022/01/22 14:34:45;;;;;;;;;;;6.40;99.90;;;;;;5066994;28;19916;-50
2022/01/22 14:37:24;;;;;;;;;;;6.40;99.90;;;;;;5074522;28;19991;-52
2022/01/22 14:45:22;;;;;;;;;;;6.30;99.90;;;;;;5082966;28;19961;-51
2022/01/22 14:47:52;;;;;;;;;;;6.30;99.90;;;;;;5049009;28;19943;-55
2022/01/22 14:50:18;;;;;;;;;;;6.20;99.90;;;;;;5066674;28;20373;-51
2022/01/22 14:52:47;;;;;;;;;;;6.20;99.90;;;;;;5033635;28;19928;-50
2022/01/22 14:55:13;;;;;;;;;;;6.20;99.90;;;;;;5079787;28;19951;-52
2022/01/22 14:57:39;;;;;;;;;;;6.20;99.90;;;;;;5030345;28;19988;-50
2022/01/22 15:00:10;;;;;;;;;;;6.20;99.90;;;;;;5066496;28;20295;-49
2022/01/22 15:02:36;;;;;;;;;;;6.20;99.90;;;;;;5065462;28;19995;-50
2022/01/22 15:05:03;;;;;;;;;;;6.20;99.90;;;;;;5047862;28;20011;-49
2022/01/22 15:07:29;;;;;;;;;;;6.20;99.90;;;;;;5081352;28;19916;-49
2022/01/22 15:09:55;;;;;;;;;;;6.20;99.90;;;;;;5063885;28;19924;-51
2022/01/22 15:12:21;;;;;;;;;;;6.10;99.90;;;;;;5083723;28;19920;-50
2022/01/22 15:14:48;;;;;;;;;;;5.70;99.90;;;;;;5061770;28;19916;-50
2022/01/22 15:17:27;;;;;;;;;;;6.10;99.90;;;;;;5067906;28;19920;-50
2022/01/22 15:19:53;;;;;;;;;;;6.10;99.90;;;;;;5048831;28;19990;-51
2022/01/22 15:22:19;;;;;;;;;;;6.10;99.90;;;;;;5050894;28;20002;-49
2022/01/22 15:24:49;;;;;;;;;;;6.10;99.90;;;;;;5065695;28;19925;-49
2022/01/22 15:27:16;;;;;;;;;;;6.10;99.90;;;;;;5068971;28;20006;-50
2022/01/22 15:29:53;;;;;;;;;;;6.10;99.90;;;;;;5064420;28;19970;-49
2022/01/22 15:32:39;;;;;;;;;;;6.10;99.90;;;;;;5050125;28;20384;-49
2022/01/22 15:35:06;;;;;;;;;;;6.10;99.90;;;;;;5068195;28;20041;-50
2022/01/22 15:37:36;;;;;;;;;;;6.10;99.90;;;;;;5047722;28;19931;-52
2022/01/22 15:40:06;;;;;;;;;;;6.10;99.90;;;;;;5076948;28;20004;-51
2022/01/22 15:42:32;;;;;;;;;;;6.00;99.90;;;;;;5075556;28;20390;-51
2022/01/22 15:44:58;;;;;;;;;;;6.10;99.90;;;;;;5067114;28;19954;-50
2022/01/22 15:47:24;;;;;;;;;;;6.00;99.90;;;;;;5080513;28;20020;-52
2022/01/22 15:49:55;;;;;;;;;;;6.00;99.90;;;;;;5054602;28;19916;-51
2022/01/22 15:52:21;;;;;;;;;;;6.00;99.90;;;;;;5086376;28;20254;-51
2022/01/22 15:54:47;;;;;;;;;;;6.00;99.90;;;;;;5068452;28;19963;-53
2022/01/22 15:57:15;;;;;;;;;;;6.00;99.90;;;;;;5068674;28;19974;-51
2022/01/22 15:59:41;;;;;;;;;;;5.90;99.90;;;;;;5049706;28;19926;-54
2022/01/22 16:02:07;;;;;;;;;;;6.00;99.90;;;;;;5068253;28;19916;-53
2022/01/22 16:04:33;;;;;;;;;;;5.90;99.90;;;;;;5084087;28;19923;-50
2022/01/22 16:07:18;;;;;;;;;;;5.90;99.90;;;;;;5086729;28;19924;-49
2022/01/22 16:09:43;;;;;;;;;;;5.90;99.90;;;;;;5086038;28;19999;-51
2022/01/22 16:12:09;;;;;;;;;;;5.90;99.90;;;;;;5067271;28;20011;-50
2022/01/22 16:14:35;;;;;;;;;;;5.90;99.90;;;;;;5067796;28;19923;-49
2022/01/22 16:17:01;;;;;;;;;;;5.90;99.90;;;;;;5072547;28;19924;-52
2022/01/22 16:19:26;;;;;;;;;;;5.80;99.90;;;;;;5086027;28;20452;-49
2022/01/22 16:21:53;;;;;;;;;;;5.90;99.90;;;;;;5053179;28;19916;-49
2022/01/22 16:24:18;;;;;;;;;;;5.90;99.90;;;;;;5086184;28;20026;-49
2022/01/22 16:26:44;;;;;;;;;;;5.80;99.90;;;;;;5071532;28;19924;-49
2022/01/22 16:29:10;;;;;;;;;;;5.80;99.90;;;;;;5053549;28;19951;-49
2022/01/22 16:31:37;;;;;;;;;;;5.80;99.90;;;;;;5067234;28;19932;-50
2022/01/22 16:34:03;;;;;;;;;;;5.80;99.90;;;;;;5087916;28;21347;-49
2022/01/22 16:36:29;;;;;;;;;;;5.80;99.90;;;;;;5055477;28;20370;-49
2022/01/22 16:38:57;;;;;;;;;;;5.80;99.90;;;;;;5071872;28;20346;-49
2022/01/22 16:41:23;;;;;;;;;;;5.80;99.90;;;;;;5053844;28;20258;-50
2022/01/22 16:43:51;;;;;;;;;;;5.80;99.90;;;;;;5069993;28;19977;-49
2022/01/22 16:46:32;;;;;;;;;;;5.80;99.90;;;;;;5074508;28;19920;-51